I0ABU Sezze IT current weather conditions

sailwx.info

Wind from 043 at 2 knots gusting 4

Air temperature 10.6° C
Dewpoint 9.6° C

Last reported at 2019-Dec-09 18:00 UTC.
Time now 2019-Dec-09 18:57 UTC

Location: N 41°30' E 013°04'.
View on Google Maps.

See reports from other nearby stations

  
Tides and Currents Weather Stations Pressure Air Temp Water Temp Dewpoint Dewpoint Depression Visibility Wind Speed Wind Dir Waves Ship Positions
date/time (UTC)wind fromknots sea level pressurealtimeterstation pressurevisibilityair tempwater tempwave heightnotes
2019-Dec-09 18:00 043 2 gusting 4 10.6
2019-Dec-09 17:55 042 3 gusting 4 10.6
2019-Dec-09 17:50 036 4 gusting 6 10.6
2019-Dec-09 17:45 019 2 gusting 3 10.6
2019-Dec-09 17:38 355 10.6
2019-Dec-09 17:30 355 0 gusting 1 10.6
2019-Dec-09 17:25 355 11.1
2019-Dec-09 17:20 044 11.1
2019-Dec-09 17:15 044 1 gusting 1 11.1
2019-Dec-09 17:10 044 11.1
2019-Dec-09 17:05 044 11.1
2019-Dec-09 17:00 044 11.1
2019-Dec-09 16:50 044 11.1
2019-Dec-09 16:45 044 11.1
2019-Dec-09 16:40 044 11.1
2019-Dec-09 16:35 044 11.1
2019-Dec-09 16:30 044 0 gusting 1 11.1
2019-Dec-09 16:25 044 1 gusting 3 11.1
2019-Dec-09 16:20 338 1 gusting 3 11.1
2019-Dec-09 16:15 338 2 gusting 3 11.1
2019-Dec-09 16:10 314 1 gusting 2 11.1
2019-Dec-09 16:05 315 11.1
2019-Dec-09 16:00 314 11.1
2019-Dec-09 15:55 314 11.7
2019-Dec-09 15:50 314 11.7
2019-Dec-09 15:40 169 1 gusting 3 11.7
2019-Dec-09 15:35 169 1 gusting 1 11.7
2019-Dec-09 15:30 169 11.7
2019-Dec-09 15:25 169 11.7
2019-Dec-09 15:20 169 11.7
2019-Dec-09 15:15 169 11.7
2019-Dec-09 15:10 169 0 gusting 4 11.7
2019-Dec-09 15:00 054 11.1
2019-Dec-09 14:55 054 11.1
2019-Dec-09 14:50 054 1 gusting 5 11.1
2019-Dec-09 14:45 126 6 gusting 6 11.7
2019-Dec-09 14:40 308 0 gusting 2 11.7
2019-Dec-09 14:30 308 1 gusting 2 11.7
2019-Dec-09 14:25 308 1 gusting 3 11.7
2019-Dec-09 14:15 235 11.1
2019-Dec-09 14:10 071 1 gusting 6 11.1
2019-Dec-09 14:05 107 5 gusting 10 11.1
2019-Dec-09 14:00 103 5 gusting 7 11.1
2019-Dec-09 13:55 109 3 gusting 6 11.7
2019-Dec-09 13:45 130 2 gusting 7 11.7
2019-Dec-09 13:40 131 3 gusting 6 11.7
2019-Dec-09 13:35 177 2 gusting 9 12.2
2019-Dec-09 13:30 060 12.2
2019-Dec-09 13:20 069 0 gusting 2 12.2
2019-Dec-09 13:15 048 1 gusting 3 12.2
2019-Dec-09 13:10 355 0 gusting 3 12.2
2019-Dec-09 13:05 246 1 gusting 2 12.8
2019-Dec-09 13:00 246 12.8
2019-Dec-09 12:50 246 1 gusting 3 12.8
2019-Dec-09 12:45 282 3 gusting 3 13.3
2019-Dec-09 12:40 306 0 gusting 2 13.3
2019-Dec-09 12:35 306 0 gusting 3 13.3
2019-Dec-09 12:30 308 2 gusting 3 12.8
2019-Dec-09 12:25 281 2 gusting 3 12.8
2019-Dec-09 12:20 161 12.8
2019-Dec-09 12:10 146 3 gusting 6 12.8
2019-Dec-09 12:00 150 5 gusting 9 13.3
2019-Dec-09 11:55 150 6 gusting 6 13.3
2019-Dec-09 11:50 147 0 gusting 2 13.3
2019-Dec-09 11:40 155 1 gusting 3 12.8
2019-Dec-09 11:30 152 1 gusting 5 12.2
2019-Dec-09 11:25 161 0 gusting 4 12.2
2019-Dec-09 11:20 178 1 gusting 6 12.2
2019-Dec-09 11:10 173 2 gusting 5 12.2
2019-Dec-09 11:05 194 1 gusting 2 12.2
2019-Dec-09 11:00 194 1 gusting 2 12.2
2019-Dec-09 10:55 213 1 gusting 5 12.2
2019-Dec-09 10:45 207 0 gusting 1 12.2
2019-Dec-09 10:40 207 11.7
2019-Dec-09 10:35 207 11.7
2019-Dec-09 10:30 207 11.7
2019-Dec-09 10:20 207 0 gusting 2 11.7
2019-Dec-09 10:10 207 1 gusting 1 11.7
2019-Dec-09 10:05 207 1 gusting 2 11.7
2019-Dec-09 10:00 207 1 gusting 3 11.7
2019-Dec-09 09:55 207 1 gusting 2 11.7
2019-Dec-09 09:50 207 11.7
2019-Dec-09 09:40 209 2 gusting 2 11.7
2019-Dec-09 09:30 209 12.2
2019-Dec-09 09:25 197 4 gusting 4 12.2
2019-Dec-09 09:20 193 2 gusting 3 12.2
2019-Dec-09 09:15 193 1 gusting 4 12.8
2019-Dec-09 09:05 244 2 gusting 2 12.8
2019-Dec-09 09:00 156 0 gusting 2 12.8
2019-Dec-09 08:50 133 0 gusting 2 12.8
2019-Dec-09 08:40 005 12.8
2019-Dec-09 08:30 005 0 gusting 2 12.2
2019-Dec-09 08:20 005 1 gusting 2 12.2
2019-Dec-09 08:10 005 11.7
2019-Dec-09 08:00 005 0 gusting 3 11.1
2019-Dec-09 07:55 005 1 gusting 2 11.1
2019-Dec-09 07:50 005 0 gusting 2 10.6
2019-Dec-09 07:45 014 1 gusting 1 10.6
2019-Dec-09 07:40 014 1 gusting 3 10.6
2019-Dec-09 07:30 338 2 gusting 3 10.6
2019-Dec-09 07:25 022 1 gusting 3 10.6
2019-Dec-09 07:20 022 1 gusting 3 10.6
2019-Dec-09 07:10 315 1 gusting 4 10.6
2019-Dec-09 07:00 321 0 gusting 2 10.6
2019-Dec-09 06:55 321 0 gusting 3 10.6
2019-Dec-09 06:50 037 0 gusting 2 10.6
2019-Dec-09 06:40 294 1 gusting 2 10.6
2019-Dec-09 06:35 294 0 gusting 5 10.6
2019-Dec-09 06:30 336 2 gusting 4 10.6
2019-Dec-09 06:25 350 2 gusting 4 10.6
2019-Dec-09 06:20 330 0 gusting 3 10.6
2019-Dec-09 06:10 334 10.6
2019-Dec-09 06:05 269 0 gusting 3 10.6
2019-Dec-09 06:00 267 1 gusting 1 10.6
2019-Dec-09 05:55 290 2 gusting 3 10.6
2019-Dec-09 05:50 231 0 gusting 6 10.6
2019-Dec-09 05:45 299 6 gusting 8 10.6
2019-Dec-09 05:40 265 2 gusting 6 10.6
2019-Dec-09 05:35 258 2 gusting 5 10.6
2019-Dec-09 05:30 163 1 gusting 3 10.6
2019-Dec-09 05:25 271 0 gusting 3 10.0
2019-Dec-09 05:15 255 3 gusting 7 10.0
2019-Dec-09 05:05 246 4 gusting 8 10.6
2019-Dec-09 05:00 277 0 gusting 5 11.1
2019-Dec-09 04:50 169 11.1
2019-Dec-09 04:45 170 1 gusting 1 11.1
2019-Dec-09 04:40 170 11.7
2019-Dec-09 04:35 170 11.7
2019-Dec-09 04:30 170 11.7
2019-Dec-09 04:25 170 11.7
2019-Dec-09 04:15 170 11.7
2019-Dec-09 04:10 170 1 gusting 3 11.7
2019-Dec-09 04:05 170 0 gusting 4 11.7
2019-Dec-09 04:00 036 11.7
2019-Dec-09 03:55 036 11.7
2019-Dec-09 03:50 036 11.7
2019-Dec-09 03:45 036 0 gusting 2 11.7
2019-Dec-09 03:40 036 2 gusting 3 11.7
2019-Dec-09 03:30 022 2 gusting 4 11.7
2019-Dec-09 03:25 022 1 gusting 2 11.1
2019-Dec-09 03:20 022 0 gusting 2 11.1
2019-Dec-09 03:15 022 1 gusting 2 11.1
2019-Dec-09 03:10 022 2 gusting 4 11.1
2019-Dec-09 03:05 022 3 gusting 4 11.1
2019-Dec-09 02:56 11.1
2019-Dec-09 02:51 044 2 gusting 3 11.1
2019-Dec-09 02:46 044 0 gusting 3 11.1
2019-Dec-09 02:41 040 2 gusting 4 11.1
2019-Dec-09 02:36 047 3 gusting 4 11.1
2019-Dec-09 02:31 022 2 gusting 5 11.1
2019-Dec-09 02:26 027 3 gusting 4 11.1
2019-Dec-09 02:21 020 3 gusting 4 11.1
2019-Dec-09 02:16 024 1 gusting 4 11.1
2019-Dec-09 02:11 024 3 gusting 4 11.1
2019-Dec-09 02:06 031 3 gusting 4 10.6
2019-Dec-09 02:01 038 4 gusting 4 10.6
2019-Dec-09 01:56 034 3 gusting 4 10.6
2019-Dec-09 01:51 038 1 gusting 5 10.6
2019-Dec-09 01:46 042 2 gusting 5 10.6
2019-Dec-09 01:41 031 4 gusting 6 10.6
2019-Dec-09 01:36 022 3 gusting 5 10.6
2019-Dec-09 01:31 026 4 gusting 5 10.6
2019-Dec-09 01:26 034 4 gusting 6 10.6
2019-Dec-09 01:21 034 3 gusting 5 10.6
2019-Dec-09 01:16 030 2 gusting 5 10.6
2019-Dec-09 01:11 025 3 gusting 6 10.6
2019-Dec-09 01:06 017 6 gusting 6 10.6
2019-Dec-09 01:01 025 3 gusting 4 10.6
2019-Dec-09 00:56 011 3 gusting 4 10.6
2019-Dec-09 00:51 026 3 gusting 4 10.6
2019-Dec-09 00:46 021 4 gusting 5 10.6
2019-Dec-09 00:41 034 2 gusting 4 10.6
2019-Dec-09 00:36 020 3 gusting 4 10.6
2019-Dec-09 00:31 018 2 gusting 4 10.6
2019-Dec-09 00:26 017 3 gusting 3 10.6
2019-Dec-09 00:21 017 2 gusting 3 10.6
2019-Dec-09 00:16 017 1 gusting 2 10.6
2019-Dec-09 00:11 017 1 gusting 2 11.1
2019-Dec-09 00:06 017 1 gusting 2 11.1
2019-Dec-09 00:01 017 1 gusting 2 11.1
2019-Dec-08 23:56 017 1 gusting 3 11.1
2019-Dec-08 23:51 017 2 gusting 3 11.1
2019-Dec-08 23:46 017 3 gusting 3 11.1
2019-Dec-08 23:41 017 2 gusting 3 11.1
2019-Dec-08 23:36 017 2 gusting 4 11.1
2019-Dec-08 23:31 017 2 gusting 3 11.1
2019-Dec-08 23:26 017 2 gusting 3 11.1
2019-Dec-08 23:21 017 3 gusting 3 11.1
2019-Dec-08 23:16 351 2 gusting 3 11.1
2019-Dec-08 23:11 355 2 gusting 3 11.1
2019-Dec-08 23:06 11.1
2019-Dec-08 23:01 355 1 gusting 2 11.1
2019-Dec-08 22:56 355 2 gusting 2 11.1
2019-Dec-08 22:51 355 1 gusting 1 11.1
2019-Dec-08 22:46 355 0 gusting 2 11.1
2019-Dec-08 22:41 355 0 gusting 1 11.1
2019-Dec-08 22:36 355 1 gusting 1 11.1
2019-Dec-08 22:31 355 0 gusting 1 11.1
2019-Dec-08 22:26 355 0 gusting 1 11.1
2019-Dec-08 22:21 355 11.1
2019-Dec-08 22:16 355 0 gusting 1 11.1
2019-Dec-08 22:11 355 11.1
2019-Dec-08 22:06 355 11.1
2019-Dec-08 22:01 355 11.1
2019-Dec-08 21:56 355 11.1
2019-Dec-08 21:51 355 11.7
2019-Dec-08 21:46 355 11.7
2019-Dec-08 21:41 355 11.7
2019-Dec-08 21:36 355 0 gusting 1 11.7
2019-Dec-08 21:31 355 0 gusting 2 11.7
2019-Dec-08 21:26 355 11.7
2019-Dec-08 21:21 355 0 gusting 1 11.7
2019-Dec-08 21:16 355 11.7
2019-Dec-08 21:11 355 11.7
2019-Dec-08 21:06 355 11.7
2019-Dec-08 21:01 355 11.7
2019-Dec-08 20:56 355 11.7
2019-Dec-08 20:51 355 0 gusting 2 11.7
2019-Dec-08 20:46 355 1 gusting 2 11.7
2019-Dec-08 20:41 005 11.7
2019-Dec-08 20:36 005 11.7
2019-Dec-08 20:31 005 0 gusting 1 11.7
2019-Dec-08 20:26 005 0 gusting 0 11.7
2019-Dec-08 20:21 005 0 gusting 1 11.7
2019-Dec-08 20:16 005 2 gusting 2 11.7
2019-Dec-08 20:11 005 0 gusting 1 11.7
2019-Dec-08 20:06 005 11.7
2019-Dec-08 20:01 005 11.7
2019-Dec-08 19:56 005 0 gusting 1 11.1
2019-Dec-08 19:51 005 11.1
2019-Dec-08 19:46 005 0 gusting 1 11.7
2019-Dec-08 19:41 005 0 gusting 1 11.7
2019-Dec-08 19:36 005 0 gusting 1 11.7
2019-Dec-08 19:31 005 1 gusting 1 11.7
2019-Dec-08 19:26 005 0 gusting 1 11.7
2019-Dec-08 19:21 005 0 gusting 1 11.7
2019-Dec-08 19:16 005 0 gusting 1 11.7
2019-Dec-08 19:11 005 0 gusting 2 11.7
2019-Dec-08 19:06 005 2 gusting 2 11.7
2019-Dec-08 19:01 005 2 gusting 3 11.7
2019-Dec-08 18:56 005 1 gusting 3 11.7
2019-Dec-08 18:51 005 2 gusting 4 11.7
2019-Dec-08 18:46 026 1 gusting 3 11.7
2019-Dec-08 18:41 026 2 gusting 3 11.7
2019-Dec-08 18:36 025 3 gusting 3 11.7
2019-Dec-08 18:31 025 2 gusting 3 11.7
2019-Dec-08 18:26 025 2 gusting 3 12.2
2019-Dec-08 18:21 025 2 gusting 3 12.2
2019-Dec-08 18:16 170 1 gusting 1 12.2
2019-Dec-08 18:11 170 12.8
2019-Dec-08 18:06 170 12.8
2019-Dec-08 18:01 170 0 gusting 1 12.8
2019-Dec-08 17:56 170 0 gusting 4 12.8
2019-Dec-08 17:51 170 1 gusting 4 12.8
2019-Dec-08 17:46 170 1 gusting 3 12.8
2019-Dec-08 17:41 005 0 gusting 2 12.8
2019-Dec-08 17:36 005 0 gusting 2 12.8
2019-Dec-08 17:31 005 2 gusting 4 12.8
2019-Dec-08 17:26 333 1 gusting 5 12.8
2019-Dec-08 17:21 355 1 gusting 6 12.8
2019-Dec-08 17:16 340 3 gusting 5 12.8
2019-Dec-08 17:11 242 12.8
2019-Dec-08 17:06 242 12.8
2019-Dec-08 17:01 242 12.8
2019-Dec-08 16:56 242 12.8
2019-Dec-08 16:51 242 0 gusting 2 12.8
2019-Dec-08 16:46 242 13.3
2019-Dec-08 16:41 242 1 gusting 1 13.3
2019-Dec-08 16:36 242 13.3
2019-Dec-08 16:31 242 0 gusting 1 13.3
2019-Dec-08 16:26 242 13.3
2019-Dec-08 16:21 242 13.3
2019-Dec-08 16:16 242 0 gusting 2 13.3
2019-Dec-08 16:11 242 13.3
2019-Dec-08 16:06 242 2 gusting 4 13.3
2019-Dec-08 16:01 267 0 gusting 3 13.3
2019-Dec-08 15:56 271 2 gusting 3 13.3
2019-Dec-08 15:51 063 13.3
2019-Dec-08 15:46 063 13.3
2019-Dec-08 15:41 063 13.3
2019-Dec-08 15:36 063 1 gusting 1 13.3
2019-Dec-08 15:31 063 13.3
2019-Dec-08 15:26 063 13.3
2019-Dec-08 15:21 063 13.3
2019-Dec-08 15:16 063 13.3
2019-Dec-08 15:11 063 13.3
2019-Dec-08 15:06 063 13.3
2019-Dec-08 15:01 063 13.3
2019-Dec-08 14:56 063 13.3
2019-Dec-08 14:51 063 13.3
2019-Dec-08 14:46 063 13.3
2019-Dec-08 14:41 063 13.3
2019-Dec-08 14:36 063 1 gusting 3 12.8
2019-Dec-08 14:31 192 0 gusting 1 13.3
2019-Dec-08 14:26 192 1 gusting 2 13.3
2019-Dec-08 14:21 192 1 gusting 3 13.3
2019-Dec-08 14:16 192 1 gusting 2 13.3
2019-Dec-08 14:11 192 0 gusting 3 13.3
2019-Dec-08 14:06 192 2 gusting 2 13.3
2019-Dec-08 14:01 192 1 gusting 3 13.3
2019-Dec-08 13:56 192 1 gusting 3 13.3
2019-Dec-08 13:51 192 1 gusting 3 13.3
2019-Dec-08 13:46 192 1 gusting 2 13.3
2019-Dec-08 13:41 192 1 gusting 3 13.3
2019-Dec-08 13:36 192 1 gusting 2 13.3
2019-Dec-08 13:31 192 13.3
2019-Dec-08 13:26 192 1 gusting 3 13.3
2019-Dec-08 13:21 196 0 gusting 3 13.3
2019-Dec-08 13:16 196 1 gusting 4 13.3
2019-Dec-08 13:11 191 2 gusting 3 13.9
2019-Dec-08 13:06 184 2 gusting 3 13.9
2019-Dec-08 13:01 196 3 gusting 5 13.9
2019-Dec-08 12:56 163 1 gusting 6 13.9
2019-Dec-08 12:51 220 3 gusting 6 13.9
2019-Dec-08 12:46 193 4 gusting 6 13.9
2019-Dec-08 12:41 163 4 gusting 6 13.9
2019-Dec-08 12:36 209 3 gusting 6 13.9
2019-Dec-08 12:31 209 2 gusting 4 13.3
2019-Dec-08 12:26 195 4 gusting 5 13.3
2019-Dec-08 12:21 209 3 gusting 4 13.3
2019-Dec-08 12:16 180 1 gusting 3 13.3
2019-Dec-08 12:11 202 2 gusting 2 13.3
2019-Dec-08 12:06 209 0 gusting 2 13.3
2019-Dec-08 12:01 209 1 gusting 3 13.3
2019-Dec-08 11:56 206 3 gusting 3 13.3
2019-Dec-08 11:51 191 2 gusting 4 13.3
2019-Dec-08 11:46 210 2 gusting 3 13.3
2019-Dec-08 11:41 210 2 gusting 4 13.3
2019-Dec-08 11:36 222 1 gusting 5 13.3
2019-Dec-08 11:31 201 3 gusting 3 13.3
2019-Dec-08 11:26 200 1 gusting 2 13.3
2019-Dec-08 11:21 225 3 gusting 4 13.3
2019-Dec-08 11:16 162 3 gusting 4 13.3
2019-Dec-08 11:11 192 2 gusting 4 13.3
2019-Dec-08 11:06 162 1 gusting 4 13.3
2019-Dec-08 11:01 138 2 gusting 6 13.9
2019-Dec-08 10:56 168 1 gusting 6 13.9
2019-Dec-08 10:51 230 4 gusting 4 13.9
2019-Dec-08 10:46 155 3 gusting 5 13.9
2019-Dec-08 10:41 190 2 gusting 5 13.9
2019-Dec-08 10:36 212 2 gusting 5 13.9
2019-Dec-08 10:31 198 4 gusting 5 13.9
2019-Dec-08 10:26 179 0 gusting 4 13.9
2019-Dec-08 10:21 184 0 gusting 5 13.9
2019-Dec-08 10:16 207 3 gusting 3 14.4
2019-Dec-08 10:11 191 1 gusting 4 14.4
2019-Dec-08 10:06 218 0 gusting 3 13.9
2019-Dec-08 10:01 218 2 gusting 5 13.9
2019-Dec-08 09:56 212 2 gusting 5 13.9
2019-Dec-08 09:51 022 1 gusting 1 13.9
2019-Dec-08 09:46 022 13.9
2019-Dec-08 09:41 022 13.9
2019-Dec-08 09:36 022 1 gusting 2 13.3
2019-Dec-08 09:31 022 2 gusting 3 13.3
2019-Dec-08 09:26 020 0 gusting 2 13.3
2019-Dec-08 09:21 020 1 gusting 3 13.3
2019-Dec-08 09:16 017 2 gusting 3 12.8
2019-Dec-08 09:11 048 1 gusting 3 12.8
2019-Dec-08 09:06 048 2 gusting 2 12.8
2019-Dec-08 09:01 048 0 gusting 3 12.8
2019-Dec-08 08:56 049 1 gusting 4 12.8
2019-Dec-08 08:51 046 2 gusting 4 12.8
2019-Dec-08 08:46 042 2 gusting 3 13.3
2019-Dec-08 08:41 105 1 gusting 2 13.3
2019-Dec-08 08:36 180 13.3
2019-Dec-08 08:31 180 13.3
2019-Dec-08 08:26 180 13.3
2019-Dec-08 08:21 180 13.3
2019-Dec-08 08:16 180 12.8
2019-Dec-08 08:11 180 12.8
2019-Dec-08 08:06 180 0 gusting 2 12.8
2019-Dec-08 08:01 039 0 gusting 2 12.8
2019-Dec-08 07:56 039 1 gusting 1 12.8
2019-Dec-08 07:51 039 0 gusting 2 12.8
2019-Dec-08 07:46 039 1 gusting 2 12.8
2019-Dec-08 07:41 038 1 gusting 4 12.2
2019-Dec-08 07:36 050 3 gusting 3 12.2
2019-Dec-08 07:31 035 3 gusting 3 12.2
2019-Dec-08 07:26 040 2 gusting 3 11.7
2019-Dec-08 07:21 040 2 gusting 3 11.7
2019-Dec-08 07:16 040 2 gusting 3 11.7
2019-Dec-08 07:11 049 2 gusting 3 11.7
2019-Dec-08 07:06 020 2 gusting 3 11.7
2019-Dec-08 07:01 020 2 gusting 4 11.7
2019-Dec-08 06:56 020 4 gusting 6 11.7
2019-Dec-08 06:51 030 2 gusting 2 11.7
2019-Dec-08 06:46 030 1 gusting 2 11.7
2019-Dec-08 06:41 030 1 gusting 3 11.7
2019-Dec-08 06:36 030 1 gusting 3 11.7
2019-Dec-08 06:31 030 1 gusting 3 11.7
2019-Dec-08 06:26 030 3 gusting 3 11.7
2019-Dec-08 06:21 030 2 gusting 3 11.7
2019-Dec-08 06:16 024 2 gusting 4 11.7
2019-Dec-08 06:11 024 3 gusting 4 11.7
2019-Dec-08 06:06 049 2 gusting 3 11.7
2019-Dec-08 06:01 049 12.2
2019-Dec-08 05:56 049 12.2
2019-Dec-08 05:51 049 12.2
2019-Dec-08 05:46 049 12.2
2019-Dec-08 05:41 049 12.2
2019-Dec-08 05:36 049 12.2
2019-Dec-08 05:31 049 12.2
2019-Dec-08 05:26 049 0 gusting 1 12.2
2019-Dec-08 05:21 049 0 gusting 3 12.2
2019-Dec-08 05:16 049 1 gusting 3 12.2
2019-Dec-08 05:11 049 2 gusting 3 12.2
2019-Dec-08 05:06 005 1 gusting 2 12.2
2019-Dec-08 05:01 005 2 gusting 2 12.2
2019-Dec-08 04:56 005 0 gusting 2 12.2
2019-Dec-08 04:51 005 1 gusting 2 12.2
2019-Dec-08 04:46 005 1 gusting 1 12.2
2019-Dec-08 04:41 005 0 gusting 2 12.2
2019-Dec-08 04:36 005 12.2
2019-Dec-08 04:31 005 12.2
2019-Dec-08 04:26 005 12.2
2019-Dec-08 04:21 005 12.2
2019-Dec-08 04:16 005 12.2
2019-Dec-08 04:11 005 12.2
2019-Dec-08 04:06 005 12.2
2019-Dec-08 04:01 005 11.7
2019-Dec-08 03:56 005 1 gusting 1 12.2
2019-Dec-08 03:51 005 0 gusting 1 12.2
2019-Dec-08 03:46 005 1 gusting 2 12.2
2019-Dec-08 03:41 005 2 gusting 2 12.2
2019-Dec-08 03:36 005 1 gusting 3 12.2
2019-Dec-08 03:31 256 1 gusting 1 12.2
2019-Dec-08 03:26 256 0 gusting 1 12.2
2019-Dec-08 03:21 256 12.8
2019-Dec-08 03:16 256 12.2
2019-Dec-08 03:11 256 1 gusting 2 12.2
2019-Dec-08 03:06 005 0 gusting 1 12.2
2019-Dec-08 03:01 005 12.2
2019-Dec-08 02:56 005 0 gusting 3 12.2
2019-Dec-08 02:51 019 2 gusting 5 12.2
2019-Dec-08 02:46 348 4 gusting 5 12.2
2019-Dec-08 02:41 005 4 gusting 4 12.2
2019-Dec-08 02:36 005 3 gusting 5 12.2
2019-Dec-08 02:31 005 2 gusting 9 12.2
2019-Dec-08 02:26 018 3 gusting 6 12.2
2019-Dec-08 02:21 005 3 gusting 6 12.2
2019-Dec-08 02:16 005 5 gusting 7 12.2
2019-Dec-08 02:11 042 3 gusting 5 12.2
2019-Dec-08 02:06 029 3 gusting 6 12.2
2019-Dec-08 02:01 023 5 gusting 5 12.2
2019-Dec-08 01:56 351 1 gusting 4 12.2
2019-Dec-08 01:51 035 1 gusting 3 12.2
2019-Dec-08 01:46 005 1 gusting 4 12.2
2019-Dec-08 01:41 355 4 gusting 6 12.2
2019-Dec-08 01:36 022 2 gusting 4 12.2
2019-Dec-08 01:31 036 3 gusting 4 12.2
2019-Dec-08 01:26 336 4 gusting 4 12.2
2019-Dec-08 01:21 028 1 gusting 2 12.2
2019-Dec-08 01:16 026 1 gusting 3 12.2
2019-Dec-08 01:11 026 2 gusting 4 12.2
2019-Dec-08 01:06 346 1 gusting 5 12.2
2019-Dec-08 01:01 019 3 gusting 6 11.7
2019-Dec-08 00:56 024 1 gusting 4 11.7
2019-Dec-08 00:51 005 1 gusting 5 11.7
2019-Dec-08 00:46 020 2 gusting 3 11.7
2019-Dec-08 00:41 021 1 gusting 4 11.7
2019-Dec-08 00:36 024 2 gusting 4 11.7
2019-Dec-08 00:31 040 2 gusting 2 11.7
2019-Dec-08 00:26 040 11.7
2019-Dec-08 00:21 355 0 gusting 2 11.7
2019-Dec-08 00:16 355 11.7
2019-Dec-08 00:11 355 1 gusting 4 11.7
2019-Dec-08 00:06 020 4 gusting 4 12.2
2019-Dec-08 00:01 012 1 gusting 5 12.2
2019-Dec-07 23:56 355 1 gusting 3 12.2
2019-Dec-07 23:51 024 2 gusting 5 12.2
2019-Dec-07 23:46 351 3 gusting 5 12.2
2019-Dec-07 23:41 348 2 gusting 7 12.2
2019-Dec-07 23:36 336 4 gusting 6 12.2
2019-Dec-07 23:31 028 3 gusting 7 12.2
2019-Dec-07 23:26 331 6 gusting 8 12.2
2019-Dec-07 23:21 12.2
2019-Dec-07 23:16 020 2 gusting 7 12.2
2019-Dec-07 23:11 355 2 gusting 6 12.2
2019-Dec-07 23:06 009 3 gusting 6 12.2
2019-Dec-07 23:01 011 3 gusting 4 12.2
2019-Dec-07 22:56 005 2 gusting 6 12.2
2019-Dec-07 22:51 350 3 gusting 4 12.2
2019-Dec-07 22:46 010 3 gusting 4 12.2
2019-Dec-07 22:41 309 3 gusting 6 12.2
2019-Dec-07 22:36 355 1 gusting 5 12.2
2019-Dec-07 22:31 11.7
2019-Dec-07 22:26 330 1 gusting 3 11.7
2019-Dec-07 22:21 330 1 gusting 3 11.7
2019-Dec-07 22:16 205 1 gusting 3 11.7
2019-Dec-07 22:11 207 11.7
2019-Dec-07 22:06 091 11.7
2019-Dec-07 22:01 092 0 gusting 2 11.7
2019-Dec-07 21:56 348 0 gusting 2 11.7
2019-Dec-07 21:51 320 0 gusting 3 12.2
2019-Dec-07 21:46 337 1 gusting 4 12.2
2019-Dec-07 21:41 355 3 gusting 5 12.2
2019-Dec-07 21:36 024 1 gusting 6 12.2
2019-Dec-07 21:31 346 2 gusting 4 12.2
2019-Dec-07 21:26 023 12.2
2019-Dec-07 21:21 023 2 gusting 4 11.7
2019-Dec-07 21:16 010 2 gusting 3 11.7
2019-Dec-07 21:11 348 1 gusting 4 11.7
2019-Dec-07 21:06 355 2 gusting 6 11.7
2019-Dec-07 21:01 340 0 gusting 3 11.7
2019-Dec-07 20:56 335 1 gusting 4 11.7
2019-Dec-07 20:51 355 11.7
2019-Dec-07 20:46 300 1 gusting 2 11.7
2019-Dec-07 20:41 299 1 gusting 2 11.7
2019-Dec-07 20:36 299 1 gusting 1 11.7
2019-Dec-07 20:31 005 12.2
2019-Dec-07 20:26 318 1 gusting 2 12.2
2019-Dec-07 20:21 286 1 gusting 3 12.2
2019-Dec-07 20:16 310 12.2
2019-Dec-07 20:11 310 12.2
2019-Dec-07 20:06 310 1 gusting 3 12.2
2019-Dec-07 20:01 310 0 gusting 6 12.2
2019-Dec-07 19:56 287 1 gusting 2 12.2
2019-Dec-07 19:51 287 0 gusting 3 12.2
2019-Dec-07 19:46 287 1 gusting 1 12.2
2019-Dec-07 19:41 349 0 gusting 2 12.2
2019-Dec-07 19:36 327 0 gusting 2 12.2
2019-Dec-07 19:31 326 0 gusting 4 12.2
2019-Dec-07 19:26 320 2 gusting 2 11.7
2019-Dec-07 19:21 318 0 gusting 2 12.2
2019-Dec-07 19:16 231 12.2
2019-Dec-07 19:11 231 12.2
2019-Dec-07 19:06 231 0 gusting 1 12.2
2019-Dec-07 19:01 232 12.2
2019-Dec-07 18:56 232 0 gusting 1 11.7
2019-Dec-07 18:51 013 0 gusting 1 11.7
2019-Dec-07 18:46 013 0 gusting 1 11.7
2019-Dec-07 18:41 013 0 gusting 2 11.7
2019-Dec-07 18:36 013 0 gusting 1 11.7
2019-Dec-07 18:31 013 0 gusting 3 11.7
2019-Dec-07 18:26 355 1 gusting 6 11.7
2019-Dec-07 18:21 355 2 gusting 4 11.7
2019-Dec-07 18:16 355 2 gusting 2 11.7
2019-Dec-07 18:11 355 1 gusting 3 11.7
2019-Dec-07 18:06 355 2 gusting 4 11.7
2019-Dec-07 18:01 005 3 gusting 4 11.7